sensor_id;sensor_type;location;lat;lon;timestamp;temperature;humidity
26262;DHT22;13988;52.446;13.280;2022-07-05T00:00:12;16.40;99.90
26262;DHT22;13988;52.446;13.280;2022-07-05T00:02:38;16.40;99.90
26262;DHT22;13988;52.446;13.280;2022-07-05T00:05:04;16.40;99.90
26262;DHT22;13988;52.446;13.280;2022-07-05T00:07:30;16.40;99.90
26262;DHT22;13988;52.446;13.280;2022-07-05T00:09:56;16.40;99.90
26262;DHT22;13988;52.446;13.280;2022-07-05T00:12:26;16.60;99.90
26262;DHT22;13988;52.446;13.280;2022-07-05T00:14:52;16.40;99.90
26262;DHT22;13988;52.446;13.280;2022-07-05T00:17:18;16.30;99.90
26262;DHT22;13988;52.446;13.280;2022-07-05T00:19:44;16.30;99.90
26262;DHT22;13988;52.446;13.280;2022-07-05T00:22:10;16.30;99.90
26262;DHT22;13988;52.446;13.280;2022-07-05T00:24:35;16.30;99.90
26262;DHT22;13988;52.446;13.280;2022-07-05T00:27:01;16.20;99.90
26262;DHT22;13988;52.446;13.280;2022-07-05T00:29:27;16.20;99.90
26262;DHT22;13988;52.446;13.280;2022-07-05T00:31:53;16.10;99.90
26262;DHT22;13988;52.446;13.280;2022-07-05T00:34:19;16.10;99.90
26262;DHT22;13988;52.446;13.280;2022-07-05T00:36:44;16.00;99.90
26262;DHT22;13988;52.446;13.280;2022-07-05T00:39:10;16.00;99.90
26262;DHT22;13988;52.446;13.280;2022-07-05T00:41:36;16.10;99.90
26262;DHT22;13988;52.446;13.280;2022-07-05T00:44:08;16.00;99.90
26262;DHT22;13988;52.446;13.280;2022-07-05T00:46:35;15.90;99.90
26262;DHT22;13988;52.446;13.280;2022-07-05T00:49:01;16.00;99.90
26262;DHT22;13988;52.446;13.280;2022-07-05T00:51:31;15.90;99.90
26262;DHT22;13988;52.446;13.280;2022-07-05T00:53:57;15.90;99.90
26262;DHT22;13988;52.446;13.280;2022-07-05T00:56:24;15.70;99.90
26262;DHT22;13988;52.446;13.280;2022-07-05T00:58:50;15.40;99.90
26262;DHT22;13988;52.446;13.280;2022-07-05T01:01:16;15.60;99.90
26262;DHT22;13988;52.446;13.280;2022-07-05T01:03:42;15.70;99.90
26262;DHT22;13988;52.446;13.280;2022-07-05T01:06:10;15.80;99.90
26262;DHT22;13988;52.446;13.280;2022-07-05T01:08:38;15.80;99.90
26262;DHT22;13988;52.446;13.280;2022-07-05T01:11:04;15.60;99.90
26262;DHT22;13988;52.446;13.280;2022-07-05T01:13:30;15.70;99.90
26262;DHT22;13988;52.446;13.280;2022-07-05T01:15:56;15.60;99.90
26262;DHT22;13988;52.446;13.280;2022-07-05T01:18:22;15.60;99.90
26262;DHT22;13988;52.446;13.280;2022-07-05T01:20:49;15.50;99.90
26262;DHT22;13988;52.446;13.280;2022-07-05T01:23:15;15.70;99.90
26262;DHT22;13988;52.446;13.280;2022-07-05T01:25:41;15.70;99.90
26262;DHT22;13988;52.446;13.280;2022-07-05T01:28:07;15.60;99.90
26262;DHT22;13988;52.446;13.280;2022-07-05T01:30:35;15.70;99.90
26262;DHT22;13988;52.446;13.280;2022-07-05T01:33:02;15.80;99.90
26262;DHT22;13988;52.446;13.280;2022-07-05T01:35:29;15.80;99.90
26262;DHT22;13988;52.446;13.280;2022-07-05T01:37:55;15.70;99.90
26262;DHT22;13988;52.446;13.280;2022-07-05T01:40:21;15.60;99.90
26262;DHT22;13988;52.446;13.280;2022-07-05T01:42:47;15.70;99.90
26262;DHT22;13988;52.446;13.280;2022-07-05T01:45:13;15.70;99.90
26262;DHT22;13988;52.446;13.280;2022-07-05T01:47:59;15.70;99.90
26262;DHT22;13988;52.446;13.280;2022-07-05T01:50:28;15.60;99.90
26262;DHT22;13988;52.446;13.280;2022-07-05T01:52:56;15.50;99.90
26262;DHT22;13988;52.446;13.280;2022-07-05T01:55:22;15.60;99.90
26262;DHT22;13988;52.446;13.280;2022-07-05T01:57:47;15.60;99.90
26262;DHT22;13988;52.446;13.280;2022-07-05T02:00:13;15.50;99.90
26262;DHT22;13988;52.446;13.280;2022-07-05T02:02:42;15.60;99.90
26262;DHT22;13988;52.446;13.280;2022-07-05T02:05:08;15.60;99.90
26262;DHT22;13988;52.446;13.280;2022-07-05T02:07:33;15.60;99.90
26262;DHT22;13988;52.446;13.280;2022-07-05T02:09:59;15.40;99.90
26262;DHT22;13988;52.446;13.280;2022-07-05T02:12:25;15.50;99.90
26262;DHT22;13988;52.446;13.280;2022-07-05T02:14:50;15.60;99.90
26262;DHT22;13988;52.446;13.280;2022-07-05T02:17:16;15.50;99.90
26262;DHT22;13988;52.446;13.280;2022-07-05T02:19:41;15.50;99.90
26262;DHT22;13988;52.446;13.280;2022-07-05T02:22:07;15.30;99.90
26262;DHT22;13988;52.446;13.280;2022-07-05T02:24:33;15.10;99.90
26262;DHT22;13988;52.446;13.280;2022-07-05T02:26:59;15.10;99.90
26262;DHT22;13988;52.446;13.280;2022-07-05T02:29:24;15.10;99.90
26262;DHT22;13988;52.446;13.280;2022-07-05T02:31:50;15.50;99.90
26262;DHT22;13988;52.446;13.280;2022-07-05T02:34:16;15.30;99.90
26262;DHT22;13988;52.446;13.280;2022-07-05T02:36:41;15.30;99.90
26262;DHT22;13988;52.446;13.280;2022-07-05T02:39:07;15.20;99.90
26262;DHT22;13988;52.446;13.280;2022-07-05T02:41:33;15.20;99.90
26262;DHT22;13988;52.446;13.280;2022-07-05T02:43:58;15.20;99.90
26262;DHT22;13988;52.446;13.280;2022-07-05T02:46:24;15.30;99.90
26262;DHT22;13988;52.446;13.280;2022-07-05T02:48:51;15.20;99.90
26262;DHT22;13988;52.446;13.280;2022-07-05T02:51:18;15.20;99.90
26262;DHT22;13988;52.446;13.280;2022-07-05T02:53:43;15.30;99.90
26262;DHT22;13988;52.446;13.280;2022-07-05T02:56:09;15.20;99.90
26262;DHT22;13988;52.446;13.280;2022-07-05T02:58:36;15.20;99.90
26262;DHT22;13988;52.446;13.280;2022-07-05T03:01:02;15.30;99.90
26262;DHT22;13988;52.446;13.280;2022-07-05T03:03:27;15.40;99.90
26262;DHT22;13988;52.446;13.280;2022-07-05T03:05:53;15.40;99.90
26262;DHT22;13988;52.446;13.280;2022-07-05T03:08:18;15.30;99.90
26262;DHT22;13988;52.446;13.280;2022-07-05T03:10:44;15.40;99.90
26262;DHT22;13988;52.446;13.280;2022-07-05T03:13:10;15.40;99.90
26262;DHT22;13988;52.446;13.280;2022-07-05T03:15:35;15.20;99.90
26262;DHT22;13988;52.446;13.280;2022-07-05T03:18:01;15.20;99.90
26262;DHT22;13988;52.446;13.280;2022-07-05T03:20:27;15.20;99.90
26262;DHT22;13988;52.446;13.280;2022-07-05T03:22:52;15.10;99.90
26262;DHT22;13988;52.446;13.280;2022-07-05T03:25:18;15.00;99.90
26262;DHT22;13988;52.446;13.280;2022-07-05T03:27:44;15.10;99.90
26262;DHT22;13988;52.446;13.280;2022-07-05T03:30:10;15.00;99.90
26262;DHT22;13988;52.446;13.280;2022-07-05T03:32:35;15.10;99.90
26262;DHT22;13988;52.446;13.280;2022-07-05T03:35:01;15.00;99.90
26262;DHT22;13988;52.446;13.280;2022-07-05T03:37:27;15.00;99.90
26262;DHT22;13988;52.446;13.280;2022-07-05T03:39:52;15.20;99.90
26262;DHT22;13988;52.446;13.280;2022-07-05T03:42:18;15.20;99.90
26262;DHT22;13988;52.446;13.280;2022-07-05T03:44:43;15.20;99.90
26262;DHT22;13988;52.446;13.280;2022-07-05T03:47:09;15.10;99.90
26262;DHT22;13988;52.446;13.280;2022-07-05T03:49:34;15.10;99.90
26262;DHT22;13988;52.446;13.280;2022-07-05T03:52:00;15.20;99.90
26262;DHT22;13988;52.446;13.280;2022-07-05T03:54:26;15.40;99.90
26262;DHT22;13988;52.446;13.280;2022-07-05T03:56:51;15.50;99.90
26262;DHT22;13988;52.446;13.280;2022-07-05T03:59:17;15.40;99.90
26262;DHT22;13988;52.446;13.280;2022-07-05T04:01:42;15.30;99.90
26262;DHT22;13988;52.446;13.280;2022-07-05T04:04:08;15.40;99.90
26262;DHT22;13988;52.446;13.280;2022-07-05T04:06:34;15.50;99.90
26262;DHT22;13988;52.446;13.280;2022-07-05T04:08:59;15.50;99.90
26262;DHT22;13988;52.446;13.280;2022-07-05T04:11:25;15.60;99.90
26262;DHT22;13988;52.446;13.280;2022-07-05T04:13:50;16.00;99.90
26262;DHT22;13988;52.446;13.280;2022-07-05T04:16:16;16.00;99.90
26262;DHT22;13988;52.446;13.280;2022-07-05T04:18:41;16.00;99.90
26262;DHT22;13988;52.446;13.280;2022-07-05T04:21:07;16.00;99.90
26262;DHT22;13988;52.446;13.280;2022-07-05T04:23:33;16.00;99.90
26262;DHT22;13988;52.446;13.280;2022-07-05T04:26:00;16.20;99.90
26262;DHT22;13988;52.446;13.280;2022-07-05T04:28:27;16.20;99.90
26262;DHT22;13988;52.446;13.280;2022-07-05T04:30:58;16.20;99.90
26262;DHT22;13988;52.446;13.280;2022-07-05T04:33:24;16.20;99.90
26262;DHT22;13988;52.446;13.280;2022-07-05T04:35:50;16.20;99.90
26262;DHT22;13988;52.446;13.280;2022-07-05T04:38:15;16.30;99.90
26262;DHT22;13988;52.446;13.280;2022-07-05T04:40:41;16.40;99.90
26262;DHT22;13988;52.446;13.280;2022-07-05T04:43:07;16.40;99.90
26262;DHT22;13988;52.446;13.280;2022-07-05T04:45:33;16.40;99.90
26262;DHT22;13988;52.446;13.280;2022-07-05T04:47:59;16.40;99.90
26262;DHT22;13988;52.446;13.280;2022-07-05T04:50:24;16.60;99.90
26262;DHT22;13988;52.446;13.280;2022-07-05T04:52:50;16.50;99.90
26262;DHT22;13988;52.446;13.280;2022-07-05T04:55:15;16.70;99.90
26262;DHT22;13988;52.446;13.280;2022-07-05T04:57:42;16.70;99.90
26262;DHT22;13988;52.446;13.280;2022-07-05T05:00:12;16.80;99.90
26262;DHT22;13988;52.446;13.280;2022-07-05T05:02:38;16.70;99.90
26262;DHT22;13988;52.446;13.280;2022-07-05T05:05:04;16.90;99.90
26262;DHT22;13988;52.446;13.280;2022-07-05T05:07:30;16.90;99.90
26262;DHT22;13988;52.446;13.280;2022-07-05T05:09:56;17.00;99.90
26262;DHT22;13988;52.446;13.280;2022-07-05T05:12:22;17.50;99.90
26262;DHT22;13988;52.446;13.280;2022-07-05T05:14:48;17.30;99.90
26262;DHT22;13988;52.446;13.280;2022-07-05T05:17:14;17.20;99.90
26262;DHT22;13988;52.446;13.280;2022-07-05T05:19:39;17.30;99.90
26262;DHT22;13988;52.446;13.280;2022-07-05T05:22:05;17.40;99.90
26262;DHT22;13988;52.446;13.280;2022-07-05T05:24:32;17.50;99.90
26262;DHT22;13988;52.446;13.280;2022-07-05T05:27:00;17.60;99.90
26262;DHT22;13988;52.446;13.280;2022-07-05T05:29:26;17.70;99.90
26262;DHT22;13988;52.446;13.280;2022-07-05T05:31:51;18.10;99.90
26262;DHT22;13988;52.446;13.280;2022-07-05T05:34:17;18.30;99.90
26262;DHT22;13988;52.446;13.280;2022-07-05T05:36:43;18.40;99.90
26262;DHT22;13988;52.446;13.280;2022-07-05T05:39:08;18.10;99.90
26262;DHT22;13988;52.446;13.280;2022-07-05T05:41:34;18.10;99.90
26262;DHT22;13988;52.446;13.280;2022-07-05T05:44:01;18.00;99.90
26262;DHT22;13988;52.446;13.280;2022-07-05T05:46:26;18.10;99.90
26262;DHT22;13988;52.446;13.280;2022-07-05T05:48:52;18.60;99.90
26262;DHT22;13988;52.446;13.280;2022-07-05T05:51:17;18.50;99.90
26262;DHT22;13988;52.446;13.280;2022-07-05T05:53:43;18.50;99.90
26262;DHT22;13988;52.446;13.280;2022-07-05T05:56:11;18.40;99.90
26262;DHT22;13988;52.446;13.280;2022-07-05T05:58:37;18.50;99.90
26262;DHT22;13988;52.446;13.280;2022-07-05T06:01:02;18.50;99.90
26262;DHT22;13988;52.446;13.280;2022-07-05T06:03:28;18.60;99.90
26262;DHT22;13988;52.446;13.280;2022-07-05T06:05:54;18.60;99.90
26262;DHT22;13988;52.446;13.280;2022-07-05T06:08:20;18.90;99.90
26262;DHT22;13988;52.446;13.280;2022-07-05T06:10:46;19.10;99.90
26262;DHT22;13988;52.446;13.280;2022-07-05T06:13:13;20.30;99.90
26262;DHT22;13988;52.446;13.280;2022-07-05T06:15:40;22.40;99.90
26262;DHT22;13988;52.446;13.280;2022-07-05T06:18:12;23.40;99.90
26262;DHT22;13988;52.446;13.280;2022-07-05T06:20:38;23.80;97.60
26262;DHT22;13988;52.446;13.280;2022-07-05T06:23:06;23.80;98.60
26262;DHT22;13988;52.446;13.280;2022-07-05T06:25:32;24.50;96.40
26262;DHT22;13988;52.446;13.280;2022-07-05T06:28:03;24.70;93.40
26262;DHT22;13988;52.446;13.280;2022-07-05T06:30:31;22.80;96.00
26262;DHT22;13988;52.446;13.280;2022-07-05T06:32:57;22.80;98.60
26262;DHT22;13988;52.446;13.280;2022-07-05T06:35:23;24.40;95.90
26262;DHT22;13988;52.446;13.280;2022-07-05T06:37:53;24.70;94.00
26262;DHT22;13988;52.446;13.280;2022-07-05T06:40:23;25.10;90.20
26262;DHT22;13988;52.446;13.280;2022-07-05T06:42:50;24.90;90.40
26262;DHT22;13988;52.446;13.280;2022-07-05T06:45:16;25.90;88.40
26262;DHT22;13988;52.446;13.280;2022-07-05T06:47:42;26.20;82.10
26262;DHT22;13988;52.446;13.280;2022-07-05T06:50:08;26.10;84.90
26262;DHT22;13988;52.446;13.280;2022-07-05T06:52:35;26.20;83.20
26262;DHT22;13988;52.446;13.280;2022-07-05T06:55:02;26.60;78.70
26262;DHT22;13988;52.446;13.280;2022-07-05T06:57:28;27.10;80.60
26262;DHT22;13988;52.446;13.280;2022-07-05T06:59:53;28.00;73.60
26262;DHT22;13988;52.446;13.280;2022-07-05T07:02:19;28.10;74.70
26262;DHT22;13988;52.446;13.280;2022-07-05T07:04:46;29.20;73.80
26262;DHT22;13988;52.446;13.280;2022-07-05T07:07:12;28.90;70.00
26262;DHT22;13988;52.446;13.280;2022-07-05T07:10:00;28.20;70.30
26262;DHT22;13988;52.446;13.280;2022-07-05T07:12:26;26.80;77.00
26262;DHT22;13988;52.446;13.280;2022-07-05T07:14:52;27.90;70.80
26262;DHT22;13988;52.446;13.280;2022-07-05T07:17:18;27.70;72.10
26262;DHT22;13988;52.446;13.280;2022-07-05T07:19:43;26.70;73.00
26262;DHT22;13988;52.446;13.280;2022-07-05T07:22:09;27.00;72.90
26262;DHT22;13988;52.446;13.280;2022-07-05T07:24:35;28.20;68.50
26262;DHT22;13988;52.446;13.280;2022-07-05T07:27:00;28.00;70.00
26262;DHT22;13988;52.446;13.280;2022-07-05T07:29:30;28.70;68.00
26262;DHT22;13988;52.446;13.280;2022-07-05T07:31:57;27.70;70.00
26262;DHT22;13988;52.446;13.280;2022-07-05T07:34:23;27.50;61.90
26262;DHT22;13988;52.446;13.280;2022-07-05T07:36:49;28.60;65.40
26262;DHT22;13988;52.446;13.280;2022-07-05T07:39:15;27.60;67.60
26262;DHT22;13988;52.446;13.280;2022-07-05T07:41:40;26.50;72.30
26262;DHT22;13988;52.446;13.280;2022-07-05T07:44:06;27.70;68.10
26262;DHT22;13988;52.446;13.280;2022-07-05T07:46:32;27.70;63.80
26262;DHT22;13988;52.446;13.280;2022-07-05T07:48:58;27.50;64.50
26262;DHT22;13988;52.446;13.280;2022-07-05T07:51:24;27.60;66.90
26262;DHT22;13988;52.446;13.280;2022-07-05T07:53:50;26.50;66.70
26262;DHT22;13988;52.446;13.280;2022-07-05T07:56:15;27.10;69.80
26262;DHT22;13988;52.446;13.280;2022-07-05T07:58:41;28.40;64.60
26262;DHT22;13988;52.446;13.280;2022-07-05T08:01:07;27.30;66.00
26262;DHT22;13988;52.446;13.280;2022-07-05T08:03:37;26.60;68.50
26262;DHT22;13988;52.446;13.280;2022-07-05T08:06:02;26.50;71.20
26262;DHT22;13988;52.446;13.280;2022-07-05T08:08:28;25.70;68.60
26262;DHT22;13988;52.446;13.280;2022-07-05T08:10:53;27.00;69.40
26262;DHT22;13988;52.446;13.280;2022-07-05T08:13:19;26.70;71.10
26262;DHT22;13988;52.446;13.280;2022-07-05T08:15:45;27.30;69.80
26262;DHT22;13988;52.446;13.280;2022-07-05T08:18:10;27.90;65.30
26262;DHT22;13988;52.446;13.280;2022-07-05T08:20:55;26.60;73.50
26262;DHT22;13988;52.446;13.280;2022-07-05T08:23:39;26.50;73.80
26262;DHT22;13988;52.446;13.280;2022-07-05T08:26:04;26.10;71.50
26262;DHT22;13988;52.446;13.280;2022-07-05T08:28:30;24.70;73.60
26262;DHT22;13988;52.446;13.280;2022-07-05T08:30:56;23.80;76.60
26262;DHT22;13988;52.446;13.280;2022-07-05T08:33:21;23.60;78.50
26262;DHT22;13988;52.446;13.280;2022-07-05T08:35:47;23.30;77.40
26262;DHT22;13988;52.446;13.280;2022-07-05T08:38:12;23.80;77.00
26262;DHT22;13988;52.446;13.280;2022-07-05T08:40:39;23.70;75.80
26262;DHT22;13988;52.446;13.280;2022-07-05T08:43:10;23.90;79.50
26262;DHT22;13988;52.446;13.280;2022-07-05T08:45:37;23.90;77.40
26262;DHT22;13988;52.446;13.280;2022-07-05T08:48:03;23.30;79.10
26262;DHT22;13988;52.446;13.280;2022-07-05T08:50:30;23.20;81.00
26262;DHT22;13988;52.446;13.280;2022-07-05T08:52:57;23.10;79.60
26262;DHT22;13988;52.446;13.280;2022-07-05T08:55:24;23.40;77.30
26262;DHT22;13988;52.446;13.280;2022-07-05T08:57:50;23.10;77.60
26262;DHT22;13988;52.446;13.280;2022-07-05T09:00:16;22.60;80.10
26262;DHT22;13988;52.446;13.280;2022-07-05T09:02:42;23.00;80.40
26262;DHT22;13988;52.446;13.280;2022-07-05T09:05:10;23.20;80.50
26262;DHT22;13988;52.446;13.280;2022-07-05T09:07:38;23.60;79.20
26262;DHT22;13988;52.446;13.280;2022-07-05T09:10:06;22.80;82.60
26262;DHT22;13988;52.446;13.280;2022-07-05T09:12:32;22.80;84.90
26262;DHT22;13988;52.446;13.280;2022-07-05T09:14:57;22.90;84.20
26262;DHT22;13988;52.446;13.280;2022-07-05T09:17:23;22.90;81.60
26262;DHT22;13988;52.446;13.280;2022-07-05T09:20:10;23.20;82.50
26262;DHT22;13988;52.446;13.280;2022-07-05T09:22:51;23.30;83.50
26262;DHT22;13988;52.446;13.280;2022-07-05T09:28:03;23.10;87.90
26262;DHT22;13988;52.446;13.280;2022-07-05T09:30:40;23.60;87.70
26262;DHT22;13988;52.446;13.280;2022-07-05T09:35:38;23.60;86.80
26262;DHT22;13988;52.446;13.280;2022-07-05T09:38:05;23.80;89.60
26262;DHT22;13988;52.446;13.280;2022-07-05T09:40:33;23.80;87.00
26262;DHT22;13988;52.446;13.280;2022-07-05T09:43:11;23.40;86.80
26262;DHT22;13988;52.446;13.280;2022-07-05T09:45:37;23.80;85.00
26262;DHT22;13988;52.446;13.280;2022-07-05T09:48:05;24.10;83.60
26262;DHT22;13988;52.446;13.280;2022-07-05T09:50:37;24.00;83.10
26262;DHT22;13988;52.446;13.280;2022-07-05T09:53:03;23.60;82.20
26262;DHT22;13988;52.446;13.280;2022-07-05T09:55:29;23.60;83.30
26262;DHT22;13988;52.446;13.280;2022-07-05T09:57:55;23.50;82.20
26262;DHT22;13988;52.446;13.280;2022-07-05T10:00:22;23.60;83.60
26262;DHT22;13988;52.446;13.280;2022-07-05T10:02:53;23.50;83.30
26262;DHT22;13988;52.446;13.280;2022-07-05T10:05:23;23.70;82.60
26262;DHT22;13988;52.446;13.280;2022-07-05T10:07:54;24.00;84.60
26262;DHT22;13988;52.446;13.280;2022-07-05T10:10:24;24.00;83.70
26262;DHT22;13988;52.446;13.280;2022-07-05T10:12:56;24.10;79.20
26262;DHT22;13988;52.446;13.280;2022-07-05T10:15:27;24.10;83.00
26262;DHT22;13988;52.446;13.280;2022-07-05T10:20:31;23.30;86.00
26262;DHT22;13988;52.446;13.280;2022-07-05T10:22:58;23.50;81.30
26262;DHT22;13988;52.446;13.280;2022-07-05T10:25:25;23.70;81.40
26262;DHT22;13988;52.446;13.280;2022-07-05T10:27:52;24.40;84.30
26262;DHT22;13988;52.446;13.280;2022-07-05T10:30:19;24.30;76.40
26262;DHT22;13988;52.446;13.280;2022-07-05T10:32:46;24.50;79.00
26262;DHT22;13988;52.446;13.280;2022-07-05T10:35:12;24.60;78.50
26262;DHT22;13988;52.446;13.280;2022-07-05T10:37:38;24.70;74.10
26262;DHT22;13988;52.446;13.280;2022-07-05T10:40:05;24.40;77.30
26262;DHT22;13988;52.446;13.280;2022-07-05T10:42:37;24.10;79.20
26262;DHT22;13988;52.446;13.280;2022-07-05T10:45:03;23.80;80.60
26262;DHT22;13988;52.446;13.280;2022-07-05T10:48:15;24.40;81.00
26262;DHT22;13988;52.446;13.280;2022-07-05T10:50:55;24.20;79.00
26262;DHT22;13988;52.446;13.280;2022-07-05T10:58:19;24.00;78.00
26262;DHT22;13988;52.446;13.280;2022-07-05T11:01:31;24.20;80.10
26262;DHT22;13988;52.446;13.280;2022-07-05T11:06:04;23.60;80.40
26262;DHT22;13988;52.446;13.280;2022-07-05T11:08:31;24.10;76.70
26262;DHT22;13988;52.446;13.280;2022-07-05T11:11:09;25.00;76.20
26262;DHT22;13988;52.446;13.280;2022-07-05T11:13:40;24.90;75.00
26262;DHT22;13988;52.446;13.280;2022-07-05T11:19:06;24.80;75.80
26262;DHT22;13988;52.446;13.280;2022-07-05T11:21:33;25.40;71.30
26262;DHT22;13988;52.446;13.280;2022-07-05T11:24:22;25.50;71.80
26262;DHT22;13988;52.446;13.280;2022-07-05T11:26:50;26.10;68.50
26262;DHT22;13988;52.446;13.280;2022-07-05T11:29:49;27.20;64.90
26262;DHT22;13988;52.446;13.280;2022-07-05T11:34:48;26.60;67.90
26262;DHT22;13988;52.446;13.280;2022-07-05T11:39:39;25.80;68.60
26262;DHT22;13988;52.446;13.280;2022-07-05T11:42:05;24.90;71.50
26262;DHT22;13988;52.446;13.280;2022-07-05T11:44:33;25.00;70.90
26262;DHT22;13988;52.446;13.280;2022-07-05T11:46:59;26.20;71.50
26262;DHT22;13988;52.446;13.280;2022-07-05T11:49:26;26.60;72.00
26262;DHT22;13988;52.446;13.280;2022-07-05T11:52:01;27.20;67.40
26262;DHT22;13988;52.446;13.280;2022-07-05T11:54:31;25.60;67.30
26262;DHT22;13988;52.446;13.280;2022-07-05T11:56:57;25.60;68.70
26262;DHT22;13988;52.446;13.280;2022-07-05T11:59:25;26.30;68.00
26262;DHT22;13988;52.446;13.280;2022-07-05T12:01:52;25.50;67.80
26262;DHT22;13988;52.446;13.280;2022-07-05T12:04:22;26.80;67.60
26262;DHT22;13988;52.446;13.280;2022-07-05T12:06:48;27.50;63.20
26262;DHT22;13988;52.446;13.280;2022-07-05T12:09:21;26.80;63.60
26262;DHT22;13988;52.446;13.280;2022-07-05T12:11:54;25.70;61.00
26262;DHT22;13988;52.446;13.280;2022-07-05T12:14:49;26.40;59.40
26262;DHT22;13988;52.446;13.280;2022-07-05T12:17:17;26.80;64.10
26262;DHT22;13988;52.446;13.280;2022-07-05T12:19:44;26.60;60.90
26262;DHT22;13988;52.446;13.280;2022-07-05T12:22:10;27.00;59.90
26262;DHT22;13988;52.446;13.280;2022-07-05T12:24:36;28.80;58.50
26262;DHT22;13988;52.446;13.280;2022-07-05T12:27:02;29.30;55.40
26262;DHT22;13988;52.446;13.280;2022-07-05T12:29:28;28.60;58.60
26262;DHT22;13988;52.446;13.280;2022-07-05T12:32:04;28.20;59.20
26262;DHT22;13988;52.446;13.280;2022-07-05T12:34:34;28.10;56.40
26262;DHT22;13988;52.446;13.280;2022-07-05T12:36:59;28.00;59.70
26262;DHT22;13988;52.446;13.280;2022-07-05T12:39:25;26.20;61.20
26262;DHT22;13988;52.446;13.280;2022-07-05T12:41:51;25.90;64.70
26262;DHT22;13988;52.446;13.280;2022-07-05T12:44:20;25.70;65.80
26262;DHT22;13988;52.446;13.280;2022-07-05T12:46:46;27.50;60.70
26262;DHT22;13988;52.446;13.280;2022-07-05T12:49:14;27.70;60.70
26262;DHT22;13988;52.446;13.280;2022-07-05T12:51:41;28.40;59.10
26262;DHT22;13988;52.446;13.280;2022-07-05T12:54:18;27.80;57.60
26262;DHT22;13988;52.446;13.280;2022-07-05T12:57:02;28.10;55.10
26262;DHT22;13988;52.446;13.280;2022-07-05T13:00:00;27.80;57.80
26262;DHT22;13988;52.446;13.280;2022-07-05T13:02:49;27.80;55.50
26262;DHT22;13988;52.446;13.280;2022-07-05T13:05:23;27.60;58.90
26262;DHT22;13988;52.446;13.280;2022-07-05T13:07:50;27.50;57.70
26262;DHT22;13988;52.446;13.280;2022-07-05T13:10:21;27.60;59.30
26262;DHT22;13988;52.446;13.280;2022-07-05T13:12:48;26.00;61.00
26262;DHT22;13988;52.446;13.280;2022-07-05T13:15:14;26.30;60.60
26262;DHT22;13988;52.446;13.280;2022-07-05T13:17:40;27.40;59.60
26262;DHT22;13988;52.446;13.280;2022-07-05T13:20:06;26.90;59.00
26262;DHT22;13988;52.446;13.280;2022-07-05T13:22:32;27.80;57.80
26262;DHT22;13988;52.446;13.280;2022-07-05T13:24:58;26.90;57.30
26262;DHT22;13988;52.446;13.280;2022-07-05T13:27:23;27.70;60.20
26262;DHT22;13988;52.446;13.280;2022-07-05T13:29:49;27.80;59.50
26262;DHT22;13988;52.446;13.280;2022-07-05T13:32:15;27.30;56.90
26262;DHT22;13988;52.446;13.280;2022-07-05T13:34:42;27.40;59.20
26262;DHT22;13988;52.446;13.280;2022-07-05T13:37:08;27.80;57.40
26262;DHT22;13988;52.446;13.280;2022-07-05T13:39:34;28.30;58.80
26262;DHT22;13988;52.446;13.280;2022-07-05T13:41:59;28.20;57.00
26262;DHT22;13988;52.446;13.280;2022-07-05T13:44:25;27.50;59.30
26262;DHT22;13988;52.446;13.280;2022-07-05T13:46:51;27.70;58.80
26262;DHT22;13988;52.446;13.280;2022-07-05T13:49:17;26.60;63.00
26262;DHT22;13988;52.446;13.280;2022-07-05T13:51:42;26.60;61.90
26262;DHT22;13988;52.446;13.280;2022-07-05T13:54:08;26.30;61.10
26262;DHT22;13988;52.446;13.280;2022-07-05T13:56:33;26.50;63.70
26262;DHT22;13988;52.446;13.280;2022-07-05T13:59:01;27.40;63.00
26262;DHT22;13988;52.446;13.280;2022-07-05T14:01:27;27.40;60.80
26262;DHT22;13988;52.446;13.280;2022-07-05T14:03:54;27.70;59.80
26262;DHT22;13988;52.446;13.280;2022-07-05T14:06:20;26.80;59.10
26262;DHT22;13988;52.446;13.280;2022-07-05T14:08:46;26.50;62.80
26262;DHT22;13988;52.446;13.280;2022-07-05T14:11:11;27.50;58.40
26262;DHT22;13988;52.446;13.280;2022-07-05T14:13:38;27.20;58.60
26262;DHT22;13988;52.446;13.280;2022-07-05T14:16:04;27.30;58.30
26262;DHT22;13988;52.446;13.280;2022-07-05T14:18:30;27.30;59.70
26262;DHT22;13988;52.446;13.280;2022-07-05T14:20:55;27.70;58.10
26262;DHT22;13988;52.446;13.280;2022-07-05T14:23:21;26.30;61.50
26262;DHT22;13988;52.446;13.280;2022-07-05T14:25:47;25.70;62.20
26262;DHT22;13988;52.446;13.280;2022-07-05T14:28:12;25.50;63.80
26262;DHT22;13988;52.446;13.280;2022-07-05T14:30:43;26.30;63.10
26262;DHT22;13988;52.446;13.280;2022-07-05T14:33:10;27.40;59.60
26262;DHT22;13988;52.446;13.280;2022-07-05T14:35:36;27.40;59.30
26262;DHT22;13988;52.446;13.280;2022-07-05T14:38:02;27.40;59.40
26262;DHT22;13988;52.446;13.280;2022-07-05T14:40:28;26.70;59.80
26262;DHT22;13988;52.446;13.280;2022-07-05T14:42:56;27.70;59.00
26262;DHT22;13988;52.446;13.280;2022-07-05T14:45:23;26.70;59.10
26262;DHT22;13988;52.446;13.280;2022-07-05T14:47:49;25.90;58.60
26262;DHT22;13988;52.446;13.280;2022-07-05T14:50:15;27.40;57.20
26262;DHT22;13988;52.446;13.280;2022-07-05T14:52:41;27.50;57.30
26262;DHT22;13988;52.446;13.280;2022-07-05T14:55:08;27.40;59.90
26262;DHT22;13988;52.446;13.280;2022-07-05T14:57:37;26.70;59.50
26262;DHT22;13988;52.446;13.280;2022-07-05T15:00:08;25.80;60.70
26262;DHT22;13988;52.446;13.280;2022-07-05T15:02:34;25.00;61.80
26262;DHT22;13988;52.446;13.280;2022-07-05T15:05:00;25.00;65.70
26262;DHT22;13988;52.446;13.280;2022-07-05T15:07:26;25.30;61.00
26262;DHT22;13988;52.446;13.280;2022-07-05T15:09:52;25.10;65.10
26262;DHT22;13988;52.446;13.280;2022-07-05T15:12:17;24.90;63.40
26262;DHT22;13988;52.446;13.280;2022-07-05T15:14:44;25.50;63.10
26262;DHT22;13988;52.446;13.280;2022-07-05T15:17:09;25.50;63.70
26262;DHT22;13988;52.446;13.280;2022-07-05T15:19:35;25.70;61.70
26262;DHT22;13988;52.446;13.280;2022-07-05T15:22:01;25.80;63.00
26262;DHT22;13988;52.446;13.280;2022-07-05T15:24:27;25.70;61.70
26262;DHT22;13988;52.446;13.280;2022-07-05T15:26:53;25.20;62.70
26262;DHT22;13988;52.446;13.280;2022-07-05T15:29:19;25.80;60.40
26262;DHT22;13988;52.446;13.280;2022-07-05T15:31:44;26.20;60.20
26262;DHT22;13988;52.446;13.280;2022-07-05T15:34:10;26.30;60.50
26262;DHT22;13988;52.446;13.280;2022-07-05T15:36:36;25.50;60.20
26262;DHT22;13988;52.446;13.280;2022-07-05T15:39:04;25.50;62.80